createdAt,value
2023-03-06T00:00:43.638Z,94475.60
2023-03-06T00:03:10.412Z,94468.80
2023-03-06T00:05:37.033Z,94462.80
2023-03-06T00:08:04.168Z,94462.20
2023-03-06T00:10:32.079Z,94463.60
2023-03-06T00:13:03.124Z,94465.00
2023-03-06T00:15:30.190Z,94463.20
2023-03-06T00:17:57.736Z,94460.60
2023-03-06T00:20:26.220Z,94455.80
2023-03-06T00:22:52.888Z,94455.60
2023-03-06T00:25:22.165Z,94452.80
2023-03-06T00:27:50.142Z,94449.80
2023-03-06T00:30:21.869Z,94449.00
2023-03-06T00:32:49.272Z,94449.60
2023-03-06T00:35:16.890Z,94448.60
2023-03-06T00:37:44.663Z,94444.40
2023-03-06T00:40:18.380Z,94441.60
2023-03-06T00:42:45.358Z,94433.60
2023-03-06T00:45:13.303Z,94431.80
2023-03-06T00:47:41.475Z,94427.40
2023-03-06T00:50:10.001Z,94416.00
2023-03-06T00:52:36.968Z,94419.00
2023-03-06T00:55:05.597Z,94417.00
2023-03-06T00:57:32.383Z,94409.40
2023-03-06T00:59:59.179Z,94405.60
2023-03-06T01:02:26.081Z,94397.20
2023-03-06T01:04:54.432Z,94395.00
2023-03-06T01:07:21.226Z,94393.20
2023-03-06T01:09:47.866Z,94390.20
2023-03-06T01:12:14.687Z,94387.40
2023-03-06T01:14:41.335Z,94382.80
2023-03-06T01:17:09.475Z,94382.20
2023-03-06T01:19:36.213Z,94374.60
2023-03-06T01:22:02.844Z,94378.60
2023-03-06T01:24:29.436Z,94377.20
2023-03-06T01:26:56.616Z,94371.00
2023-03-06T01:29:23.261Z,94366.40
2023-03-06T01:31:49.988Z,94358.20
2023-03-06T01:34:16.612Z,94359.40
2023-03-06T01:36:43.323Z,94354.60
2023-03-06T01:39:10.655Z,94348.00
2023-03-06T01:41:37.481Z,94343.40
2023-03-06T01:44:04.405Z,94339.60
2023-03-06T01:46:57.061Z,94330.60
2023-03-06T01:49:25.901Z,94326.00
2023-03-06T01:51:55.742Z,94318.60
2023-03-06T01:54:28.125Z,94307.40
2023-03-06T01:57:04.385Z,94300.60
2023-03-06T01:59:35.030Z,94304.00
2023-03-06T02:02:03.788Z,94302.80
2023-03-06T02:04:30.793Z,94295.60
2023-03-06T02:07:00.241Z,94297.00
2023-03-06T02:09:30.213Z,94294.60
2023-03-06T02:11:57.940Z,94289.60
2023-03-06T02:14:24.690Z,94291.40
2023-03-06T02:16:51.572Z,94295.60
2023-03-06T02:19:40.299Z,94288.80
2023-03-06T02:22:07.244Z,94280.20
2023-03-06T02:24:51.191Z,94280.20
2023-03-06T02:27:19.804Z,94276.80
2023-03-06T02:29:47.023Z,94271.00
2023-03-06T02:32:14.842Z,94266.80
2023-03-06T02:34:56.483Z,94266.80
2023-03-06T02:37:26.556Z,94267.60
2023-03-06T02:40:02.081Z,94259.20
2023-03-06T02:42:29.785Z,94253.40
2023-03-06T02:45:01.154Z,94252.20
2023-03-06T02:47:27.852Z,94252.20
2023-03-06T02:49:54.502Z,94251.60
2023-03-06T02:52:21.231Z,94251.80
2023-03-06T02:54:47.865Z,94243.20
2023-03-06T02:57:14.700Z,94245.00
2023-03-06T02:59:41.369Z,94237.20
2023-03-06T03:02:08.052Z,94237.80
2023-03-06T03:04:35.132Z,94239.40
2023-03-06T03:07:02.065Z,94237.60
2023-03-06T03:09:29.121Z,94228.60
2023-03-06T03:11:55.626Z,94225.00
2023-03-06T03:14:24.896Z,94223.40
2023-03-06T03:16:52.234Z,94220.60
2023-03-06T03:19:18.815Z,94220.40
2023-03-06T03:21:45.936Z,94216.00
2023-03-06T03:24:13.265Z,94217.00
2023-03-06T03:26:42.136Z,94215.80
2023-03-06T03:29:12.471Z,94213.40
2023-03-06T03:31:39.104Z,94209.20
2023-03-06T03:34:05.899Z,94204.40
2023-03-06T03:36:35.242Z,94210.40
2023-03-06T03:39:03.565Z,94214.20
2023-03-06T03:41:30.330Z,94210.80
2023-03-06T03:43:56.980Z,94208.00
2023-03-06T03:46:24.273Z,94198.00
2023-03-06T03:48:52.005Z,94203.60
2023-03-06T03:51:18.843Z,94206.80
2023-03-06T03:53:49.350Z,94207.00
2023-03-06T03:56:18.968Z,94204.00
2023-03-06T03:58:53.624Z,94206.20
2023-03-06T04:01:20.360Z,94205.40
2023-03-06T04:03:47.299Z,94207.20
2023-03-06T04:06:14.992Z,94204.80
2023-03-06T04:08:41.773Z,94203.20
2023-03-06T04:11:08.593Z,94201.80
2023-03-06T04:13:35.221Z,94193.00
2023-03-06T04:16:03.358Z,94188.00
2023-03-06T04:18:31.272Z,94182.20
2023-03-06T04:21:00.885Z,94178.60
2023-03-06T04:23:27.916Z,94167.20
2023-03-06T04:25:54.937Z,94170.20
2023-03-06T04:28:21.998Z,94169.40
2023-03-06T04:30:49.225Z,94171.80
2023-03-06T04:33:17.366Z,94167.60
2023-03-06T04:35:43.961Z,94166.20
2023-03-06T04:38:14.469Z,94168.60
2023-03-06T04:40:44.508Z,94172.20
2023-03-06T04:43:11.867Z,94174.20
2023-03-06T04:45:38.539Z,94173.60
2023-03-06T04:48:05.609Z,94176.00
2023-03-06T04:50:32.760Z,94173.60
2023-03-06T04:53:01.859Z,94169.40
2023-03-06T04:55:29.044Z,94169.40
2023-03-06T04:57:57.266Z,94167.00
2023-03-06T05:00:31.388Z,94163.00
2023-03-06T05:03:00.682Z,94162.00
2023-03-06T05:05:27.761Z,94162.00
2023-03-06T05:07:55.300Z,94164.20
2023-03-06T05:10:22.614Z,94163.40
2023-03-06T05:12:49.398Z,94162.00
2023-03-06T05:15:16.816Z,94157.60
2023-03-06T05:17:43.600Z,94156.40
2023-03-06T05:20:12.340Z,94157.80
2023-03-06T05:22:39.263Z,94155.40
2023-03-06T05:25:06.873Z,94151.00
2023-03-06T05:27:33.956Z,94151.00
2023-03-06T05:30:00.817Z,94152.00
2023-03-06T05:32:27.607Z,94147.40
2023-03-06T05:34:54.496Z,94149.00
2023-03-06T05:37:23.281Z,94146.20
2023-03-06T05:39:50.885Z,94144.60
2023-03-06T05:42:18.388Z,94142.80
2023-03-06T05:44:45.327Z,94139.80
2023-03-06T05:47:12.562Z,94137.80
2023-03-06T05:49:39.665Z,94135.80
2023-03-06T05:52:07.988Z,94139.80
2023-03-06T05:54:36.646Z,94133.00
2023-03-06T05:57:05.375Z,94142.00
2023-03-06T05:59:33.244Z,94138.20
2023-03-06T06:02:01.186Z,94138.20
2023-03-06T06:04:27.991Z,94140.00
2023-03-06T06:06:57.985Z,94144.20
2023-03-06T06:09:26.556Z,94146.60
2023-03-06T06:11:59.596Z,94148.00
2023-03-06T06:14:26.433Z,94149.20
2023-03-06T06:16:53.704Z,94149.00
2023-03-06T06:19:21.789Z,94151.40
2023-03-06T06:21:51.910Z,94152.80
2023-03-06T06:24:22.405Z,94151.40
2023-03-06T06:26:57.059Z,94154.00
2023-03-06T06:29:25.339Z,94152.00
2023-03-06T06:31:52.668Z,94161.00
2023-03-06T06:34:20.449Z,94163.80
2023-03-06T06:36:51.004Z,94161.80
2023-03-06T06:39:21.731Z,94163.80
2023-03-06T06:42:02.627Z,94166.20
2023-03-06T06:44:32.639Z,94164.20
2023-03-06T06:49:51.386Z,94165.40
2023-03-06T06:52:18.997Z,94161.20
2023-03-06T06:54:46.035Z,94163.20
2023-03-06T06:57:12.924Z,94165.20
2023-03-06T06:59:39.576Z,94168.60
2023-03-06T07:02:06.395Z,94170.60
2023-03-06T07:04:33.221Z,94172.80
2023-03-06T07:07:01.109Z,94173.00
2023-03-06T07:09:30.282Z,94170.40
2023-03-06T07:11:57.702Z,94167.40
2023-03-06T07:14:24.737Z,94172.80
2023-03-06T07:16:51.441Z,94169.20
2023-03-06T07:19:18.062Z,94173.00
2023-03-06T07:21:44.705Z,94167.60
2023-03-06T07:24:11.470Z,94160.20
2023-03-06T07:26:38.212Z,94160.40
2023-03-06T07:29:05.424Z,94155.60
2023-03-06T07:31:32.660Z,94161.40
2023-03-06T07:33:59.265Z,94154.00
2023-03-06T07:36:25.904Z,94152.60
2023-03-06T07:38:52.398Z,94156.20
2023-03-06T07:41:21.826Z,94163.20
2023-03-06T07:43:49.400Z,94162.40
2023-03-06T07:46:17.980Z,94163.60
2023-03-06T07:48:44.818Z,94167.60
2023-03-06T07:51:21.248Z,94165.00
2023-03-06T07:53:49.417Z,94164.20
2023-03-06T07:56:16.622Z,94166.00
2023-03-06T07:58:46.323Z,94168.20
2023-03-06T08:01:17.468Z,94172.60
2023-03-06T08:03:44.264Z,94174.20
2023-03-06T08:06:19.098Z,94172.20
2023-03-06T08:08:48.404Z,94178.80
2023-03-06T08:11:18.548Z,94181.80
2023-03-06T08:13:45.507Z,94185.20
2023-03-06T08:16:12.710Z,94187.00
2023-03-06T08:18:43.717Z,94184.60
2023-03-06T08:21:18.473Z,94187.00
2023-03-06T08:23:45.734Z,94189.80
2023-03-06T08:26:16.405Z,94185.40
2023-03-06T08:28:43.089Z,94181.80
2023-03-06T08:31:39.824Z,94185.00
2023-03-06T08:34:17.106Z,94187.80
2023-03-06T08:36:43.894Z,94189.60
2023-03-06T08:39:10.982Z,94194.20
2023-03-06T08:41:38.067Z,94186.40
2023-03-06T08:44:05.382Z,94188.40
2023-03-06T08:46:33.768Z,94187.40
2023-03-06T08:49:00.969Z,94188.80
2023-03-06T08:51:28.889Z,94196.00
2023-03-06T08:53:58.059Z,94194.20
2023-03-06T08:56:29.604Z,94201.80
2023-03-06T08:58:58.978Z,94203.20
2023-03-06T09:01:29.861Z,94204.20
2023-03-06T09:04:00.947Z,94203.80
2023-03-06T09:06:32.418Z,94204.60
2023-03-06T09:09:00.023Z,94202.40
2023-03-06T09:11:28.919Z,94199.60
2023-03-06T09:13:56.056Z,94196.20
2023-03-06T09:16:25.283Z,94196.00
2023-03-06T09:18:54.104Z,94196.60
2023-03-06T09:21:22.180Z,94198.60
2023-03-06T09:23:50.403Z,94193.20
2023-03-06T09:26:17.218Z,94190.40
2023-03-06T09:28:44.104Z,94192.60
2023-03-06T09:31:16.511Z,94194.40
2023-03-06T09:33:43.426Z,94195.20
2023-03-06T09:36:17.113Z,94194.40
2023-03-06T09:38:44.124Z,94193.20
2023-03-06T09:41:29.613Z,94191.40
2023-03-06T09:44:08.821Z,94191.80
2023-03-06T09:46:44.948Z,94191.20
2023-03-06T09:50:01.901Z,94189.00
2023-03-06T09:52:34.133Z,94192.60
2023-03-06T09:55:22.380Z,94189.00
2023-03-06T09:58:01.364Z,94193.40
2023-03-06T10:00:38.793Z,94189.60
2023-03-06T10:03:26.634Z,94192.00
2023-03-06T10:05:57.797Z,94200.40
2023-03-06T10:08:45.537Z,94193.20
2023-03-06T10:11:17.475Z,94185.00
2023-03-06T10:13:50.305Z,94183.60
2023-03-06T10:16:29.989Z,94187.60
2023-03-06T10:19:03.570Z,94194.60
2023-03-06T10:22:17.926Z,94189.80
2023-03-06T10:25:01.745Z,94184.80
2023-03-06T10:27:39.986Z,94187.40
2023-03-06T10:30:28.460Z,94186.20
2023-03-06T10:33:19.580Z,94191.60
2023-03-06T10:35:52.254Z,94190.00
2023-03-06T10:38:28.009Z,94188.20
2023-03-06T10:41:08.257Z,94182.40
2023-03-06T10:43:37.119Z,94182.20
2023-03-06T10:46:06.991Z,94180.40
2023-03-06T10:48:40.813Z,94176.80
2023-03-06T10:51:24.558Z,94177.40
2023-03-06T10:54:03.192Z,94170.60
2023-03-06T10:56:40.444Z,94171.80
2023-03-06T10:59:12.451Z,94165.20
2023-03-06T11:01:43.814Z,94166.00
2023-03-06T11:04:24.566Z,94169.60
2023-03-06T11:07:36.916Z,94169.60
2023-03-06T11:10:17.949Z,94168.20
2023-03-06T11:13:10.492Z,94167.40
2023-03-06T11:15:37.053Z,94168.20
2023-03-06T11:18:28.411Z,94162.80
2023-03-06T11:20:56.055Z,94168.00
2023-03-06T11:23:36.933Z,94159.40
2023-03-06T11:26:16.081Z,94149.20
2023-03-06T11:29:09.179Z,94141.60
2023-03-06T11:31:45.819Z,94141.40
2023-03-06T11:34:12.362Z,94147.40
2023-03-06T11:37:08.294Z,94149.60
2023-03-06T11:39:51.327Z,94153.00
2023-03-06T11:42:36.093Z,94158.60
2023-03-06T11:45:34.836Z,94154.40
2023-03-06T11:48:22.302Z,94159.80
2023-03-06T11:50:53.015Z,94167.20
2023-03-06T11:53:32.572Z,94164.00
2023-03-06T11:56:20.532Z,94162.60
2023-03-06T11:59:07.784Z,94162.80
2023-03-06T12:01:49.712Z,94161.20
2023-03-06T12:04:41.210Z,94159.00
2023-03-06T12:07:31.309Z,94158.60
2023-03-06T12:10:24.362Z,94161.40
2023-03-06T12:16:24.347Z,94155.20
2023-03-06T12:19:31.321Z,94149.60
2023-03-06T12:22:19.892Z,94147.60
2023-03-06T12:25:16.822Z,94147.00
2023-03-06T12:28:14.495Z,94146.40
2023-03-06T12:31:12.711Z,94142.20
2023-03-06T12:34:05.574Z,94143.00
2023-03-06T12:36:50.526Z,94144.60
2023-03-06T12:39:42.103Z,94140.80
2023-03-06T12:42:23.525Z,94131.80
2023-03-06T12:45:17.239Z,94132.60
2023-03-06T12:47:48.004Z,94126.40
2023-03-06T12:50:29.542Z,94122.60
2023-03-06T12:53:03.336Z,94129.40
2023-03-06T12:55:47.635Z,94134.00
2023-03-06T12:58:29.911Z,94127.60
2023-03-06T13:01:33.606Z,94135.00
2023-03-06T13:04:48.502Z,94130.80
2023-03-06T13:07:26.205Z,94136.80
2023-03-06T13:10:05.635Z,94126.60
2023-03-06T13:12:57.117Z,94130.20
2023-03-06T13:15:45.879Z,94125.40
2023-03-06T13:18:21.758Z,94124.00
2023-03-06T13:20:58.742Z,94129.40
2023-03-06T13:23:38.640Z,94133.40
2023-03-06T13:26:29.209Z,94128.60
2023-03-06T13:28:58.110Z,94127.60
2023-03-06T13:31:53.542Z,94127.20
2023-03-06T13:34:36.404Z,94130.40
2023-03-06T13:37:18.609Z,94128.80
2023-03-06T13:39:54.072Z,94128.00
2023-03-06T13:42:36.661Z,94129.00
2023-03-06T13:45:17.926Z,94124.80
2023-03-06T13:48:33.654Z,94126.00
2023-03-06T13:50:46.662Z,94122.80
2023-03-06T13:53:34.885Z,94121.00
2023-03-06T13:56:22.989Z,94121.20
2023-03-06T13:59:21.729Z,94118.00
2023-03-06T14:02:23.427Z,94114.40
2023-03-06T14:05:01.377Z,94115.20
2023-03-06T14:07:32.461Z,94118.60
2023-03-06T14:10:14.251Z,94117.20
2023-03-06T14:13:04.188Z,94113.60
2023-03-06T14:15:42.257Z,94107.20
2023-03-06T14:18:38.501Z,94106.40
2023-03-06T14:21:13.312Z,94106.60
2023-03-06T14:23:42.548Z,94106.40
2023-03-06T14:26:15.446Z,94106.00
2023-03-06T14:28:45.119Z,94108.80
2023-03-06T14:31:20.236Z,94101.40
2023-03-06T14:33:58.572Z,94101.20
2023-03-06T14:36:36.106Z,94103.00
2023-03-06T14:39:11.446Z,94104.00
2023-03-06T14:41:39.121Z,94103.00
2023-03-06T14:44:19.807Z,94098.40
2023-03-06T14:46:50.735Z,94097.80
2023-03-06T14:49:20.499Z,94099.80
2023-03-06T14:51:51.467Z,94093.20
2023-03-06T14:54:37.033Z,94095.20
2023-03-06T14:57:14.153Z,94089.80
2023-03-06T14:59:47.413Z,94089.60
2023-03-06T15:02:22.566Z,94095.60
2023-03-06T15:05:20.551Z,94088.60
2023-03-06T15:07:47.842Z,94093.40
2023-03-06T15:10:31.915Z,94095.80
2023-03-06T15:13:22.312Z,94094.20
2023-03-06T15:16:08.066Z,94088.40
2023-03-06T15:18:54.887Z,94093.00
2023-03-06T15:21:24.059Z,94092.60
2023-03-06T15:23:54.532Z,94090.60
2023-03-06T15:26:34.497Z,94093.60
2023-03-06T15:29:10.712Z,94094.00
2023-03-06T15:31:41.518Z,94093.80
2023-03-06T15:34:10.805Z,94094.40
2023-03-06T15:36:48.474Z,94096.20
2023-03-06T15:39:38.606Z,94098.20
2023-03-06T15:42:25.962Z,94098.80
2023-03-06T15:45:03.292Z,94092.80
2023-03-06T15:47:29.890Z,94095.40
2023-03-06T15:49:56.935Z,94096.20
2023-03-06T15:52:23.778Z,94094.20
2023-03-06T15:54:50.431Z,94092.20
2023-03-06T15:57:29.064Z,94097.80
2023-03-06T15:59:56.480Z,94096.40
2023-03-06T16:02:24.399Z,94096.00
2023-03-06T16:04:53.552Z,94096.40
2023-03-06T16:07:20.596Z,94097.80
2023-03-06T16:09:47.346Z,94100.80
2023-03-06T16:12:17.980Z,94102.80
2023-03-06T16:14:47.666Z,94101.40
2023-03-06T16:17:14.968Z,94105.60
2023-03-06T16:19:43.053Z,94105.80
2023-03-06T16:22:10.044Z,94102.80
2023-03-06T16:24:37.387Z,94104.40
2023-03-06T16:27:04.904Z,94110.40
2023-03-06T16:29:31.893Z,94110.00
2023-03-06T16:32:00.915Z,94109.40
2023-03-06T16:34:27.651Z,94109.80
2023-03-06T16:36:54.258Z,94114.80
2023-03-06T16:39:23.411Z,94113.00
2023-03-06T16:41:50.268Z,94108.60
2023-03-06T16:44:16.841Z,94107.80
2023-03-06T16:46:47.097Z,94109.60
2023-03-06T16:49:20.655Z,94115.60
2023-03-06T16:51:48.125Z,94117.40
2023-03-06T16:54:15.034Z,94117.20
2023-03-06T16:56:42.214Z,94115.80
2023-03-06T16:59:09.307Z,94118.60
2023-03-06T17:01:36.997Z,94119.00
2023-03-06T17:04:03.757Z,94118.00
2023-03-06T17:06:30.504Z,94115.80
2023-03-06T17:09:00.172Z,94114.20
2023-03-06T17:11:27.786Z,94113.60
2023-03-06T17:13:55.385Z,94114.60
2023-03-06T17:16:22.407Z,94117.40
2023-03-06T17:18:49.725Z,94123.40
2023-03-06T17:21:16.628Z,94120.80
2023-03-06T17:23:44.356Z,94119.00
2023-03-06T17:26:15.896Z,94123.00
2023-03-06T17:28:43.012Z,94128.20
2023-03-06T17:31:25.363Z,94128.60
2023-03-06T17:33:57.176Z,94135.40
2023-03-06T17:36:23.947Z,94133.60
2023-03-06T17:38:50.812Z,94135.00
2023-03-06T17:41:18.832Z,94135.80
2023-03-06T17:43:46.111Z,94137.40
2023-03-06T17:46:13.720Z,94136.60
2023-03-06T17:48:40.660Z,94142.80
2023-03-06T17:51:08.012Z,94143.20
2023-03-06T17:53:36.242Z,94148.00
2023-03-06T17:56:10.570Z,94150.20
2023-03-06T17:58:37.606Z,94144.60
2023-03-06T18:01:19.054Z,94150.60
2023-03-06T18:03:49.539Z,94147.80
2023-03-06T18:06:18.589Z,94152.00
2023-03-06T18:08:46.108Z,94153.40
2023-03-06T18:11:13.882Z,94153.20
2023-03-06T18:13:43.238Z,94151.80
2023-03-06T18:16:13.069Z,94153.40
2023-03-06T18:18:40.297Z,94153.40
2023-03-06T18:21:14.219Z,94154.80
2023-03-06T18:23:41.605Z,94151.60
2023-03-06T18:26:12.771Z,94153.80
2023-03-06T18:28:44.851Z,94159.20
2023-03-06T18:31:29.087Z,94163.40
2023-03-06T18:33:59.239Z,94162.80
2023-03-06T18:36:29.070Z,94157.40
2023-03-06T18:38:56.071Z,94164.80
2023-03-06T18:41:23.345Z,94168.40
2023-03-06T18:43:58.554Z,94169.40
2023-03-06T18:46:26.529Z,94177.20
2023-03-06T18:48:53.116Z,94167.20
2023-03-06T18:51:20.218Z,94169.60
2023-03-06T18:53:47.244Z,94169.80
2023-03-06T18:56:22.229Z,94173.40
2023-03-06T18:58:50.489Z,94164.20
2023-03-06T19:01:17.786Z,94166.80
2023-03-06T19:03:44.824Z,94167.40
2023-03-06T19:06:14.827Z,94162.20
2023-03-06T19:08:41.568Z,94165.80
2023-03-06T19:11:15.378Z,94166.80
2023-03-06T19:13:42.724Z,94167.60
2023-03-06T19:16:16.437Z,94170.40
2023-03-06T19:18:43.075Z,94170.60
2023-03-06T19:21:19.656Z,94174.40
2023-03-06T19:23:47.107Z,94174.20
2023-03-06T19:26:15.531Z,94166.60
2023-03-06T19:28:43.451Z,94172.00
2023-03-06T19:31:20.843Z,94166.40
2023-03-06T19:33:49.619Z,94168.40
2023-03-06T19:36:19.415Z,94169.60
2023-03-06T19:38:53.062Z,94175.40
2023-03-06T19:41:19.717Z,94172.60
2023-03-06T19:43:52.288Z,94177.00
2023-03-06T19:46:20.285Z,94179.20
2023-03-06T19:48:47.530Z,94175.00
2023-03-06T19:51:14.620Z,94172.80
2023-03-06T19:53:41.406Z,94176.00
2023-03-06T19:56:17.006Z,94173.00
2023-03-06T19:58:43.650Z,94170.60
2023-03-06T20:01:15.824Z,94169.40
2023-03-06T20:03:42.976Z,94176.40
2023-03-06T20:06:19.306Z,94183.20
2023-03-06T20:08:47.542Z,94175.00
2023-03-06T20:11:19.944Z,94173.80
2023-03-06T20:13:48.014Z,94176.80
2023-03-06T20:16:17.268Z,94181.20
2023-03-06T20:18:44.686Z,94185.40
2023-03-06T20:21:13.231Z,94193.60
2023-03-06T20:23:39.958Z,94189.80
2023-03-06T20:26:11.868Z,94193.40
2023-03-06T20:28:40.018Z,94185.00
2023-03-06T20:31:14.008Z,94189.60
2023-03-06T20:33:40.623Z,94186.60
2023-03-06T20:36:17.443Z,94183.00
2023-03-06T20:38:44.741Z,94185.60
2023-03-06T20:41:19.788Z,94187.80
2023-03-06T20:43:46.390Z,94183.00
2023-03-06T20:46:14.137Z,94189.20
2023-03-06T20:48:42.413Z,94192.00
2023-03-06T20:51:18.526Z,94194.40
2023-03-06T20:53:49.012Z,94191.00
2023-03-06T20:56:20.138Z,94192.40
2023-03-06T20:58:47.289Z,94189.20
2023-03-06T21:01:33.095Z,94182.40
2023-03-06T21:04:01.784Z,94181.80
2023-03-06T21:06:29.070Z,94174.60
2023-03-06T21:09:00.541Z,94180.20
2023-03-06T21:11:28.540Z,94168.40
2023-03-06T21:13:56.833Z,94167.60
2023-03-06T21:16:27.497Z,94163.60
2023-03-06T21:18:56.105Z,94170.60
2023-03-06T21:21:28.211Z,94166.20
2023-03-06T21:23:54.941Z,94168.60
2023-03-06T21:26:25.371Z,94169.60
2023-03-06T21:28:52.734Z,94170.80
2023-03-06T21:31:21.630Z,94173.40
2023-03-06T21:33:49.810Z,94175.20
2023-03-06T21:36:18.696Z,94180.40
2023-03-06T21:38:45.559Z,94176.00
2023-03-06T21:41:16.617Z,94179.60
2023-03-06T21:43:43.354Z,94175.80
2023-03-06T21:46:11.374Z,94179.80
2023-03-06T21:48:37.948Z,94176.40
2023-03-06T21:51:18.426Z,94174.80
2023-03-06T21:53:47.526Z,94177.00
2023-03-06T21:56:17.248Z,94168.00
2023-03-06T21:58:45.783Z,94168.60
2023-03-06T22:01:20.309Z,94168.80
2023-03-06T22:03:47.256Z,94167.60
2023-03-06T22:06:19.430Z,94167.60
2023-03-06T22:08:46.148Z,94159.80
2023-03-06T22:11:17.714Z,94148.60
2023-03-06T22:13:45.500Z,94152.80
2023-03-06T22:16:12.863Z,94159.20
2023-03-06T22:18:39.694Z,94151.00
2023-03-06T22:21:12.332Z,94152.00
2023-03-06T22:23:40.564Z,94146.80
2023-03-06T22:26:12.602Z,94148.80
2023-03-06T22:28:41.502Z,94139.80
2023-03-06T22:31:15.417Z,94138.00
2023-03-06T22:33:42.244Z,94133.40
2023-03-06T22:36:13.074Z,94138.00
2023-03-06T22:38:43.080Z,94142.00
2023-03-06T22:41:13.344Z,94136.20
2023-03-06T22:43:41.120Z,94135.20
2023-03-06T22:46:12.727Z,94132.80
2023-03-06T22:48:39.911Z,94127.20
2023-03-06T22:51:14.455Z,94127.20
2023-03-06T22:53:41.244Z,94121.00
2023-03-06T22:56:12.066Z,94115.80
2023-03-06T22:58:39.304Z,94119.60
2023-03-06T23:01:18.417Z,94115.20
2023-03-06T23:03:48.753Z,94112.60
2023-03-06T23:06:25.504Z,94106.40
2023-03-06T23:09:05.972Z,94111.20
2023-03-06T23:11:51.791Z,94103.60
2023-03-06T23:14:37.998Z,94104.20
2023-03-06T23:17:23.429Z,94103.20
2023-03-06T23:20:10.258Z,94101.40
2023-03-06T23:22:55.581Z,94098.60
2023-03-06T23:25:41.108Z,94101.80
2023-03-06T23:28:07.825Z,94099.20
2023-03-06T23:30:34.444Z,94098.40
2023-03-06T23:33:00.965Z,94097.80
2023-03-06T23:35:27.574Z,94097.80
2023-03-06T23:37:54.177Z,94106.60
2023-03-06T23:40:21.183Z,94099.60
2023-03-06T23:42:47.839Z,94102.00
2023-03-06T23:45:14.406Z,94101.80
2023-03-06T23:47:42.172Z,94101.60
2023-03-06T23:50:09.818Z,94098.60
2023-03-06T23:52:38.497Z,94107.60
2023-03-06T23:55:06.489Z,94103.00
2023-03-06T23:57:33.296Z,94099.80
